Time;durP1;ratioP1;P1;durP2;ratioP2;P2;SDS_P1;SDS_P2;PMS_P1;PMS_P2;Temp;Humidity;BMP_temperature;BMP_pressure;BME280_temperature;BME280_humidity;BME280_pressure;Samples;Min_cycle;Max_cycle;Signal;HPM_P1;HPM_P2
2023/02/07 09:26:01;;;;;;;16.23;11.77;;;;;;;4.21;54.03;101282.00;5172498;27;20554;-82
2023/02/07 09:28:31;;;;;;;15.30;11.30;;;;;;;4.20;55.25;101283.75;5154537;27;39654;-82
2023/02/07 09:31:00;;;;;;;17.27;12.10;;;;;;;4.30;54.09;101263.69;5153330;27;40784;-89
2023/02/07 09:33:28;;;;;;;19.70;13.30;;;;;;;5.46;52.81;101297.72;5170454;27;43712;-83
2023/02/07 09:35:56;;;;;;;14.47;11.53;;;;;;;7.20;48.70;101301.94;5153520;27;41357;-85
2023/02/07 09:38:24;;;;;;;15.03;11.70;;;;;;;9.04;45.09;101326.81;5170581;27;40689;-83
2023/02/07 09:40:54;;;;;;;15.80;12.53;;;;;;;10.03;43.78;101345.22;5153052;27;43374;-82
2023/02/07 09:43:36;;;;;;;14.67;12.03;;;;;;;8.80;43.68;101328.09;5152979;27;43297;-85
2023/02/07 09:46:08;;;;;;;15.13;11.50;;;;;;;7.63;46.26;101332.28;5153577;27;42252;-84
2023/02/07 09:48:45;;;;;;;15.07;11.63;;;;;;;6.47;47.40;101294.66;5170617;27;40053;-83
2023/02/07 09:51:15;;;;;;;14.50;11.77;;;;;;;6.10;48.63;101317.69;5153363;27;43784;-83
2023/02/07 09:53:50;;;;;;;15.13;11.27;;;;;;;5.94;49.35;101305.47;5152682;27;44042;-82
2023/02/07 09:56:19;;;;;;;16.07;11.77;;;;;;;6.09;47.84;101310.66;5167220;27;42236;-84
2023/02/07 09:58:57;;;;;;;15.23;11.27;;;;;;;6.94;47.84;101295.16;5169895;27;39096;-84
2023/02/07 10:01:30;;;;;;;14.63;11.30;;;;;;;7.92;44.99;101332.78;5170410;27;42250;-84
2023/02/07 10:04:08;;;;;;;14.27;11.17;;;;;;;7.78;44.83;101311.00;5152524;27;41664;-83
2023/02/07 10:06:38;;;;;;;18.10;12.27;;;;;;;7.89;44.05;101319.66;5170264;27;41371;-82
2023/02/07 10:09:14;;;;;;;14.13;11.07;;;;;;;9.09;43.12;101343.47;5169583;27;40152;-82
2023/02/07 10:11:48;;;;;;;18.03;11.90;;;;;;;10.29;42.03;101331.47;5152513;27;40616;-82
2023/02/07 10:14:40;;;;;;;14.03;10.43;;;;;;;11.34;39.15;101362.56;5167854;27;43020;-82
2023/02/07 10:17:23;;;;;;;11.63;9.87;;;;;;;12.15;37.96;101382.47;5150856;27;41754;-84
2023/02/07 10:20:03;;;;;;;14.03;10.97;;;;;;;12.79;38.01;101336.22;5152867;27;38921;-84
2023/02/07 10:22:38;;;;;;;12.40;9.93;;;;;;;13.02;36.90;101332.81;5169580;27;42152;-82
2023/02/07 10:25:18;;;;;;;13.33;10.63;;;;;;;12.92;37.00;101360.63;5151880;27;43322;-82
2023/02/07 10:28:00;;;;;;;13.17;10.77;;;;;;;13.18;34.77;101355.38;5152737;27;43697;-84
2023/02/07 10:30:34;;;;;;;13.37;10.00;;;;;;;12.24;35.81;101289.22;5169558;27;40457;-82
2023/02/07 10:33:08;;;;;;;13.93;10.67;;;;;;;12.90;35.45;101349.16;5152220;27;43105;-84
2023/02/07 10:35:38;;;;;;;14.13;11.10;;;;;;;14.19;34.33;101360.66;5165569;27;41338;-82
2023/02/07 10:38:18;;;;;;;12.20;10.97;;;;;;;15.41;32.70;101367.31;5138470;27;41036;-82
2023/02/07 10:40:53;;;;;;;15.30;10.37;;;;;;;16.79;32.55;101349.47;5155296;27;39051;-84
2023/02/07 10:43:28;;;;;;;12.17;10.70;;;;;;;17.56;29.07;101379.50;5138313;27;40332;-84
2023/02/07 10:46:02;;;;;;;14.57;10.87;;;;;;;18.71;27.71;101376.94;5155612;27;43408;-82
2023/02/07 10:48:30;;;;;;;11.17;10.07;;;;;;;20.20;27.37;101388.72;5137583;27;41334;-81
2023/02/07 10:51:00;;;;;;;11.47;10.33;;;;;;;21.76;25.60;101375.72;5137883;27;40462;-86
2023/02/07 10:53:45;;;;;;;11.57;10.47;;;;;;;23.99;23.14;101409.72;5137545;27;41770;-81
2023/02/07 10:56:18;;;;;;;11.37;10.27;;;;;;;25.35;21.59;101394.16;5138127;27;43151;-84
2023/02/07 10:58:46;;;;;;;11.67;10.47;;;;;;;26.26;21.07;101387.28;5155326;27;43301;-82
2023/02/07 11:01:21;;;;;;;11.10;10.00;;;;;;;26.92;20.66;101368.66;5156892;27;40560;-83
2023/02/07 11:03:50;;;;;;;11.63;10.53;;;;;;;27.71;19.44;101355.84;5138017;27;40984;-83
2023/02/07 11:06:26;;;;;;;10.88;9.77;;;;;;;28.82;18.35;101353.19;5138186;27;41580;-78
2023/02/07 11:09:18;;;;;;;11.40;10.20;;;;;;;30.10;17.10;101373.69;5153856;27;42822;-84
2023/02/07 11:11:49;;;;;;;10.82;9.63;;;;;;;30.11;16.84;101326.19;5153374;27;40201;-83
2023/02/07 11:14:25;;;;;;;10.48;9.52;;;;;;;30.47;16.79;101347.91;5154747;27;43415;-83
2023/02/07 11:16:55;;;;;;;10.82;9.82;;;;;;;31.25;16.62;101349.41;5169871;27;42610;-85
2023/02/07 11:19:25;;;;;;;10.07;9.18;;;;;;;32.06;15.69;101326.59;5137081;27;44086;-83
2023/02/07 11:22:05;;;;;;;9.85;8.95;;;;;;;32.60;15.73;101337.75;5137386;27;40911;-86
2023/02/07 11:24:36;;;;;;;9.63;8.73;;;;;;;31.44;15.25;101342.72;5137175;27;40387;-85
2023/02/07 11:27:07;;;;;;;11.10;9.93;;;;;;;30.55;16.53;101326.94;5137460;27;41645;-80
2023/02/07 11:29:40;;;;;;;10.63;9.63;;;;;;;29.54;17.33;101301.22;5154370;27;42740;-82
2023/02/07 11:32:14;;;;;;;11.63;10.33;;;;;;;27.23;18.82;101313.16;5152144;27;40932;-86
2023/02/07 11:34:49;;;;;;;9.87;9.03;;;;;;;25.57;20.72;101286.50;5154237;27;41985;-83
2023/02/07 11:37:25;;;;;;;10.50;9.50;;;;;;;26.17;20.44;101284.84;5154890;27;43372;-85
2023/02/07 11:39:55;;;;;;;11.83;10.63;;;;;;;26.28;19.31;101292.94;5154359;27;42738;-84
2023/02/07 11:42:25;;;;;;;11.83;10.73;;;;;;;26.45;19.07;101274.13;5137527;27;39234;-85
2023/02/07 11:44:53;;;;;;;11.23;9.90;;;;;;;26.82;19.00;101296.09;5154557;27;41983;-83
2023/02/07 11:47:26;;;;;;;10.60;9.50;;;;;;;26.82;18.41;101285.19;5153586;27;43946;-83
2023/02/07 11:49:58;;;;;;;11.80;10.70;;;;;;;27.58;18.05;101273.59;5154038;27;40885;-84
2023/02/07 11:52:28;;;;;;;10.75;9.65;;;;;;;28.89;17.14;101288.81;5137131;27;39668;-86
2023/02/07 11:54:59;;;;;;;10.23;9.32;;;;;;;29.93;16.64;101279.75;5136273;27;41961;-85
2023/02/07 11:57:32;;;;;;;10.43;9.43;;;;;;;30.85;15.96;101262.56;5136894;27;42781;-81
2023/02/07 12:00:06;;;;;;;9.45;8.55;;;;;;;32.11;14.88;101291.28;5154476;27;41104;-86
2023/02/07 12:02:50;;;;;;;10.07;9.18;;;;;;;33.00;14.42;101303.75;5154198;27;40655;-84
2023/02/07 12:05:22;;;;;;;9.27;8.35;;;;;;;33.59;14.24;101298.47;5136355;27;40559;-86
2023/02/07 12:07:52;;;;;;;9.85;8.93;;;;;;;34.02;13.39;101289.44;5152265;27;43275;-86
2023/02/07 12:10:24;;;;;;;9.07;8.27;;;;;;;34.40;13.62;101295.72;5153847;27;41458;-84
2023/02/07 12:12:56;;;;;;;10.05;9.05;;;;;;;34.66;12.74;101297.94;5151112;27;39740;-85
2023/02/07 12:15:29;;;;;;;9.18;8.38;;;;;;;34.79;13.40;101280.75;5153061;27;41749;-84
2023/02/07 12:18:05;;;;;;;9.75;8.80;;;;;;;35.08;13.34;101272.38;5150911;27;44133;-84
2023/02/07 12:20:37;;;;;;;9.20;8.30;;;;;;;35.38;12.79;101291.53;5153600;27;42306;-83
2023/02/07 12:23:11;;;;;;;10.40;9.25;;;;;;;35.30;11.94;101289.78;5168472;27;39877;-82
2023/02/07 12:25:46;;;;;;;9.65;8.70;;;;;;;35.18;12.26;101264.63;5135304;27;43281;-85
2023/02/07 12:28:24;;;;;;;9.73;8.90;;;;;;;35.09;12.06;101282.34;5151803;27;43605;-82
2023/02/07 12:30:55;;;;;;;13.73;9.18;;;;;;;35.02;12.98;101270.41;5154106;27;41206;-82
2023/02/07 12:33:36;;;;;;;9.68;8.77;;;;;;;34.99;11.30;101303.84;5153565;27;38943;-83
2023/02/07 12:36:12;;;;;;;17.25;8.98;;;;;;;34.75;11.52;101290.41;5136348;27;41746;-85
2023/02/07 12:38:48;;;;;;;10.15;9.20;;;;;;;34.47;11.46;101288.41;5150714;27;42705;-83
2023/02/07 12:41:23;;;;;;;9.68;8.88;;;;;;;34.24;12.25;101271.16;5153802;27;42506;-82
2023/02/07 12:44:01;;;;;;;8.93;8.13;;;;;;;34.35;12.99;101272.59;5168590;27;40148;-84
2023/02/07 12:46:39;;;;;;;9.30;8.40;;;;;;;34.09;11.88;101264.78;5136232;27;40915;-83
2023/02/07 12:49:28;;;;;;;9.93;9.02;;;;;;;33.50;12.51;101267.47;5151401;27;43575;-83
2023/02/07 12:52:10;;;;;;;9.00;8.10;;;;;;;33.04;13.63;101253.75;5171159;27;41165;-85
2023/02/07 12:54:54;;;;;;;9.70;8.05;;;;;;;32.59;13.40;101242.72;5153377;27;40487;-85
2023/02/07 12:57:34;;;;;;;8.93;8.10;;;;;;;32.57;12.81;101266.75;5153569;27;41160;-84
2023/02/07 13:00:07;;;;;;;9.32;8.48;;;;;;;32.16;12.86;101257.81;5152795;27;41462;-83
2023/02/07 13:02:50;;;;;;;9.48;8.57;;;;;;;32.15;13.21;101239.69;5136394;27;41444;-86
2023/02/07 13:05:50;;;;;;;15.43;9.45;;;;;;;32.15;12.40;101273.41;5136005;27;40020;-83
2023/02/07 13:08:27;;;;;;;10.02;9.02;;;;;;;31.92;13.62;101245.06;5153104;27;43396;-85
2023/02/07 13:11:08;;;;;;;10.00;9.00;;;;;;;31.97;12.84;101273.66;5153758;27;41593;-85
2023/02/07 13:13:42;;;;;;;9.70;8.63;;;;;;;31.90;13.58;101258.94;5135650;27;42231;-87
2023/02/07 13:16:17;;;;;;;10.93;8.63;;;;;;;31.25;13.69;101249.97;5151604;27;40142;-90
2023/02/07 13:18:51;;;;;;;9.87;8.87;;;;;;;28.64;15.04;101246.75;5135810;27;40971;-87
2023/02/07 13:21:27;;;;;;;9.53;8.67;;;;;;;26.61;15.47;101262.69;5150254;27;42848;-83
2023/02/07 13:24:00;;;;;;;9.70;8.80;;;;;;;25.39;16.56;101246.41;5134990;27;40791;-86
2023/02/07 13:26:30;;;;;;;14.40;9.77;;;;;;;25.49;16.69;101235.59;5136036;27;39010;-83
2023/02/07 13:29:00;;;;;;;9.70;8.73;;;;;;;25.25;17.05;101237.72;5134986;27;40462;-84
2023/02/07 13:31:38;;;;;;;9.53;8.63;;;;;;;23.68;18.00;101218.25;5136042;27;43277;-86
2023/02/07 13:34:13;;;;;;;9.63;7.70;;;;;;;22.08;19.19;101213.41;5151753;27;43053;-83
2023/02/07 13:36:45;;;;;;;10.53;8.00;;;;;;;20.49;19.96;101190.41;5135825;27;41228;-86
2023/02/07 13:39:22;;;;;;;9.10;8.20;;;;;;;19.08;20.79;101197.56;5150588;27;42280;-85
2023/02/07 13:41:59;;;;;;;8.93;7.63;;;;;;;17.78;21.75;101197.03;5135836;27;43135;-86
2023/02/07 13:44:35;;;;;;;10.37;8.87;;;;;;;16.50;22.26;101181.44;5135747;27;42643;-85
2023/02/07 13:47:26;;;;;;;9.80;8.30;;;;;;;15.23;23.88;101162.50;5136136;27;39877;-85
2023/02/07 13:50:00;;;;;;;9.47;8.40;;;;;;;14.49;25.34;101163.97;5135878;27;40860;-83
2023/02/07 13:52:35;;;;;;;11.40;8.27;;;;;;;13.83;25.87;101168.41;5135804;27;43081;-85
2023/02/07 13:55:15;;;;;;;9.87;7.47;;;;;;;13.26;26.88;101161.69;5135331;27;43481;-83
2023/02/07 14:00:31;;;;;;;10.60;7.60;;;;;;;12.72;27.78;101153.88;5135513;27;41137;-82
2023/02/07 14:03:02;;;;;;;11.77;8.97;;;;;;;12.58;28.58;101133.06;5154309;27;43416;-82
2023/02/07 14:05:31;;;;;;;9.50;8.13;;;;;;;12.40;28.16;101141.66;5152546;27;41753;-82
2023/02/07 14:08:04;;;;;;;17.10;9.03;;;;;;;12.53;28.27;101142.97;5153147;27;38796;-83
2023/02/07 14:10:44;;;;;;;12.60;8.63;;;;;;;13.58;27.77;101135.66;5169872;27;40864;-85
2023/02/07 14:13:29;;;;;;;8.13;7.20;;;;;;;14.74;26.25;101137.09;5139061;27;44388;-84
2023/02/07 14:16:01;;;;;;;11.45;8.80;;;;;;;15.82;25.39;101134.88;5153927;27;42317;-81
2023/02/07 14:18:42;;;;;;;10.67;7.93;;;;;;;16.67;25.19;101119.94;5138632;27;40206;-80
2023/02/07 14:21:45;;;;;;;10.17;8.00;;;;;;;17.48;24.16;101140.56;5155793;27;41610;-81
2023/02/07 14:24:35;;;;;;;9.57;7.67;;;;;;;18.04;23.52;101141.94;5148209;27;42900;-79
2023/02/07 14:27:05;;;;;;;13.37;8.30;;;;;;;18.24;22.70;101135.41;5155498;27;42412;-81
2023/02/07 14:29:55;;;;;;;9.13;7.57;;;;;;;18.38;23.09;101148.03;5156280;27;39274;-80
2023/02/07 14:33:17;;;;;;;11.33;7.87;;;;;;;18.41;22.33;101147.88;5158512;27;40841;-81
2023/02/07 14:36:03;;;;;;;10.77;7.47;;;;;;;18.33;23.18;101125.97;5138243;27;43490;-82
2023/02/07 14:38:36;;;;;;;9.43;7.90;;;;;;;18.13;23.07;101113.72;5155136;27;41590;-83
2023/02/07 14:41:11;;;;;;;9.30;7.83;;;;;;;18.06;22.85;101148.06;5138687;27;41134;-83
2023/02/07 14:43:49;;;;;;;10.87;8.23;;;;;;;17.86;23.31;101140.28;5138555;27;40496;-80
2023/02/07 14:46:26;;;;;;;8.60;7.70;;;;;;;17.78;22.28;101166.66;5153902;27;42941;-82
2023/02/07 14:49:00;;;;;;;10.33;8.03;;;;;;;17.63;23.34;101143.34;5138567;27;41754;-81
2023/02/07 14:51:37;;;;;;;7.53;6.70;;;;;;;17.44;23.41;101139.00;5155774;27;41698;-81
2023/02/07 14:54:14;;;;;;;8.73;7.13;;;;;;;16.38;23.78;101115.16;5138109;27;41989;-83
2023/02/07 14:56:50;;;;;;;8.63;7.40;;;;;;;15.21;24.93;101110.97;5138070;27;41844;-83
2023/02/07 14:59:28;;;;;;;8.10;7.27;;;;;;;13.97;26.34;101064.81;5138195;27;41602;-84
2023/02/07 15:01:56;;;;;;;9.30;7.90;;;;;;;13.10;27.02;101064.72;5138352;27;40151;-85
2023/02/07 15:04:26;;;;;;;9.60;7.43;;;;;;;12.63;27.83;101105.44;5138002;27;40854;-81
2023/02/07 15:06:54;;;;;;;7.97;6.80;;;;;;;12.03;28.53;101117.22;5155875;27;45084;-86
2023/02/07 15:09:26;;;;;;;9.97;7.63;;;;;;;11.43;29.82;101096.97;5155566;27;42643;-84
2023/02/07 15:12:09;;;;;;;8.60;7.20;;;;;;;10.85;30.46;101087.19;5138746;27;39151;-83
2023/02/07 15:14:37;;;;;;;8.90;6.63;;;;;;;10.52;30.74;101096.91;5138241;27;40448;-84
2023/02/07 15:17:06;;;;;;;9.63;7.03;;;;;;;10.04;31.58;101076.91;5155742;27;42767;-84
2023/02/07 15:19:37;;;;;;;8.93;6.23;;;;;;;9.73;31.81;101076.78;5137540;27;41010;-81
2023/02/07 15:22:07;;;;;;;12.67;7.33;;;;;;;8.98;32.20;101011.50;5155637;27;39684;-87
2023/02/07 15:24:40;;;;;;;7.80;6.90;;;;;;;9.15;32.81;101086.94;5136833;27;41900;-86
2023/02/07 15:27:20;;;;;;;7.67;5.93;;;;;;;8.81;33.45;101076.16;5155578;27;41893;-86
2023/02/07 15:29:55;;;;;;;11.27;6.60;;;;;;;8.56;33.54;101075.78;5137952;27;42238;-82
2023/02/07 15:32:26;;;;;;;12.17;6.60;;;;;;;7.83;33.96;101003.16;5138685;27;38968;-83
2023/02/07 15:34:54;;;;;;;10.37;6.97;;;;;;;7.91;34.16;101060.16;5154776;27;42149;-84
2023/02/07 15:37:25;;;;;;;7.83;6.70;;;;;;;7.62;34.66;101061.53;5137801;27;41652;-85
2023/02/07 15:39:54;;;;;;;10.57;6.47;;;;;;;7.04;35.38;100988.59;5155066;27;40902;-85
2023/02/07 15:42:25;;;;;;;9.77;6.53;;;;;;;7.26;35.46;101069.09;5137659;27;38704;-84
2023/02/07 15:44:56;;;;;;;9.53;5.77;;;;;;;7.04;35.21;101072.91;5137824;27;40551;-83
2023/02/07 15:47:34;;;;;;;8.07;6.17;;;;;;;6.94;35.56;101084.41;5137582;27;41805;-84
2023/02/07 15:50:06;;;;;;;10.03;6.40;;;;;;;6.76;36.02;101088.16;5154691;27;42806;-82
2023/02/07 15:52:37;;;;;;;8.10;5.63;;;;;;;6.57;36.06;101090.09;5153009;27;40063;-87
2023/02/07 15:55:16;;;;;;;8.57;5.90;;;;;;;6.29;36.05;101080.75;5137163;27;42298;-84
2023/02/07 15:57:46;;;;;;;9.07;5.50;;;;;;;6.06;36.32;101062.53;5152096;27;43899;-85
2023/02/07 16:00:18;;;;;;;9.27;5.10;;;;;;;6.07;36.64;101095.84;5154193;27;42467;-86
2023/02/07 16:02:55;;;;;;;8.37;5.53;;;;;;;5.89;36.78;101082.84;5137730;27;41485;-89
2023/02/07 16:05:26;;;;;;;8.13;5.80;;;;;;;5.70;36.76;101090.81;5137199;27;41742;-82
2023/02/07 16:07:54;;;;;;;9.77;5.50;;;;;;;5.54;37.33;101094.47;5137161;27;43636;-87
2023/02/07 16:10:34;;;;;;;7.37;4.80;;;;;;;5.29;37.97;101069.22;5137134;27;41403;-87
2023/02/07 16:13:11;;;;;;;8.33;6.20;;;;;;;5.07;38.17;101062.31;5151976;27;39999;-83
2023/02/07 16:15:51;;;;;;;7.80;5.83;;;;;;;4.98;38.39;101076.34;5154460;27;41589;-88
2023/02/07 16:18:35;;;;;;;8.43;5.10;;;;;;;4.88;38.25;101090.41;5152244;27;43021;-82
2023/02/07 16:21:04;;;;;;;9.20;5.40;;;;;;;4.51;38.66;101051.16;5153258;27;42258;-89
2023/02/07 16:23:32;;;;;;;11.03;5.93;;;;;;;4.47;39.14;101067.75;5155130;27;40692;-88
2023/02/07 16:26:02;;;;;;;13.27;7.63;;;;;;;4.39;39.18;101087.91;5136941;27;40654;-83
2023/02/07 16:28:32;;;;;;;13.33;7.70;;;;;;;4.20;40.13;101075.72;5153562;27;43361;-83
2023/02/07 16:31:01;;;;;;;16.43;9.97;;;;;;;4.18;41.22;101090.56;5171852;27;41518;-83
2023/02/07 16:33:29;;;;;;;17.00;9.13;;;;;;;4.07;40.72;101087.09;5153203;27;40124;-90
2023/02/07 16:35:57;;;;;;;14.40;9.63;;;;;;;3.95;41.38;101094.06;5160409;27;42128;-83
2023/02/07 16:38:24;;;;;;;16.30;10.10;;;;;;;3.82;41.63;101081.84;5165103;27;43114;-80
2023/02/07 16:40:52;;;;;;;16.33;9.57;;;;;;;3.72;42.70;101095.78;5165157;27;41916;-82
2023/02/07 16:43:34;;;;;;;13.93;8.87;;;;;;;3.59;42.47;101086.16;5165546;27;40567;-85
2023/02/07 16:46:03;;;;;;;11.73;8.27;;;;;;;3.40;42.80;101089.63;5163996;27;41593;-81
2023/02/07 16:48:31;;;;;;;11.33;8.40;;;;;;;3.36;43.32;101095.72;5160444;27;42147;-87
2023/02/07 16:51:00;;;;;;;12.47;8.13;;;;;;;3.22;43.08;101087.81;5153531;27;42598;-80
2023/02/07 16:53:28;;;;;;;13.07;10.00;;;;;;;3.13;42.63;101095.66;5153575;27;39127;-79
2023/02/07 16:55:59;;;;;;;13.43;9.03;;;;;;;3.03;44.74;101079.03;5153343;27;40570;-83
2023/02/07 16:58:30;;;;;;;14.13;9.47;;;;;;;2.95;44.27;101085.13;5151434;27;42978;-82
2023/02/07 17:01:01;;;;;;;13.07;9.30;;;;;;;2.83;43.92;101083.34;5151805;27;42075;-79
2023/02/07 17:03:29;;;;;;;12.60;8.87;;;;;;;2.44;44.39;101040.41;5152230;27;39999;-80
2023/02/07 17:05:57;;;;;;;11.43;8.37;;;;;;;2.56;44.03;101075.34;5140781;27;42015;-81
2023/02/07 17:08:28;;;;;;;10.23;7.73;;;;;;;2.44;43.16;101069.19;5139608;27;42026;-85
2023/02/07 17:10:59;;;;;;;11.97;7.10;;;;;;;2.40;43.22;101077.00;5136467;27;41768;-86
2023/02/07 17:13:28;;;;;;;8.93;6.80;;;;;;;2.37;43.30;101098.75;5136927;27;42129;-85
2023/02/07 17:15:57;;;;;;;13.47;7.57;;;;;;;2.16;43.07;101085.56;5153723;27;42117;-88
2023/02/07 17:18:26;;;;;;;12.73;8.97;;;;;;;2.00;43.00;101070.59;5136649;27;43473;-87
2023/02/07 17:20:54;;;;;;;15.80;9.97;;;;;;;1.91;43.51;101071.41;5152991;27;41441;-81
2023/02/07 17:23:24;;;;;;;15.20;9.53;;;;;;;1.98;43.75;101088.03;5153426;27;40687;-86
2023/02/07 17:25:51;;;;;;;12.33;9.43;;;;;;;1.76;43.51;101077.38;5135763;27;42596;-84
2023/02/07 17:28:19;;;;;;;14.47;10.47;;;;;;;1.63;43.71;101067.69;5153408;27;41722;-85
2023/02/07 17:30:47;;;;;;;14.80;10.00;;;;;;;1.71;44.28;101093.91;5152922;27;43177;-81
2023/02/07 17:33:15;;;;;;;13.23;8.83;;;;;;;1.64;45.41;101092.94;5135769;27;40872;-83
2023/02/07 17:35:45;;;;;;;14.80;9.53;;;;;;;1.56;45.95;101084.19;5152609;27;42537;-82
2023/02/07 17:38:13;;;;;;;15.33;9.90;;;;;;;1.50;46.55;101084.09;5153106;27;42370;-86
2023/02/07 17:40:41;;;;;;;14.77;8.73;;;;;;;1.44;47.04;101094.50;5152954;27;42280;-85
2023/02/07 17:43:10;;;;;;;17.47;8.83;;;;;;;1.25;47.28;101054.25;5153251;27;40741;-84
2023/02/07 17:45:38;;;;;;;12.97;9.03;;;;;;;1.19;47.04;101055.94;5152904;27;40496;-84
2023/02/07 17:48:06;;;;;;;14.13;7.93;;;;;;;1.18;47.43;101062.03;5139203;27;42960;-82
2023/02/07 17:50:39;;;;;;;13.03;7.73;;;;;;;1.17;46.91;101073.31;5157248;27;42365;-87
2023/02/07 17:53:09;;;;;;;13.03;7.63;;;;;;;1.10;46.31;101084.56;5154653;27;39911;-87
2023/02/07 17:55:38;;;;;;;11.63;7.67;;;;;;;1.14;46.41;101096.75;5173441;27;41872;-86
2023/02/07 17:58:06;;;;;;;10.03;6.73;;;;;;;1.08;46.54;101094.97;5139350;27;41750;-85
2023/02/07 18:00:39;;;;;;;9.67;6.40;;;;;;;1.03;47.78;101092.31;5157329;27;42212;-80
2023/02/07 18:03:08;;;;;;;12.60;7.37;;;;;;;0.88;47.59;101080.78;5154790;27;39723;-87
2023/02/07 18:05:37;;;;;;;9.63;6.63;;;;;;;0.83;47.51;101066.84;5156043;27;40689;-83
2023/02/07 18:08:05;;;;;;;11.73;7.67;;;;;;;0.90;47.83;101098.22;5139514;27;43293;-84
2023/02/07 18:10:35;;;;;;;10.07;6.67;;;;;;;0.86;47.33;101099.06;5155806;27;43960;-82
2023/02/07 18:13:03;;;;;;;10.03;6.73;;;;;;;0.70;47.10;101084.06;5139245;27;39004;-82
2023/02/07 18:15:31;;;;;;;8.83;6.23;;;;;;;0.76;47.09;101097.16;5156095;27;41477;-83
2023/02/07 18:18:00;;;;;;;9.73;6.73;;;;;;;0.58;47.23;101078.69;5156077;27;43092;-84
2023/02/07 18:20:30;;;;;;;7.30;5.93;;;;;;;0.66;47.32;101100.53;5138571;27;40848;-84
2023/02/07 18:22:58;;;;;;;9.53;6.40;;;;;;;0.59;47.44;101096.09;5139026;27;39690;-85
2023/02/07 18:25:28;;;;;;;12.23;9.00;;;;;;;0.46;47.48;101082.00;5155677;27;41806;-81
2023/02/07 18:28:00;;;;;;;11.80;7.87;;;;;;;0.39;47.83;101081.88;5138580;27;42906;-82
2023/02/07 18:30:28;;;;;;;12.67;8.70;;;;;;;0.46;48.38;101102.00;5138482;27;42474;-82
2023/02/07 18:32:56;;;;;;;13.97;9.80;;;;;;;0.27;48.09;101075.66;5156110;27;40246;-81
2023/02/07 18:35:24;;;;;;;15.10;8.47;;;;;;;0.35;48.44;101105.31;5155874;27;40783;-81
2023/02/07 18:37:52;;;;;;;20.93;11.20;;;;;;;0.32;52.03;101079.19;5138338;27;42460;-82
2023/02/07 18:40:20;;;;;;;18.80;11.87;;;;;;;0.16;52.73;101055.50;5138390;27;41673;-80
2023/02/07 18:42:48;;;;;;;15.93;11.17;;;;;;;0.19;52.53;101071.19;5156898;27;40134;-80
2023/02/07 18:45:17;;;;;;;19.30;10.80;;;;;;;0.22;52.18;101087.75;5155706;27;40674;-81
2023/02/07 18:47:47;;;;;;;18.37;11.57;;;;;;;0.12;53.89;101067.63;5155330;27;42950;-81
2023/02/07 18:50:18;;;;;;;17.50;11.73;;;;;;;0.05;53.56;101063.16;5155562;27;42972;-81
2023/02/07 18:52:46;;;;;;;17.10;11.33;;;;;;;0.07;52.45;101077.09;5157113;27;40495;-81
2023/02/07 18:55:14;;;;;;;17.87;10.40;;;;;;;0.12;52.04;101085.88;5138242;27;40479;-82
2023/02/07 18:57:41;;;;;;;15.13;10.00;;;;;;;0.08;51.86;101104.88;5154693;27;42941;-81
2023/02/07 19:00:10;;;;;;;14.77;9.70;;;;;;;0.05;51.56;101104.84;5156476;27;42949;-82
2023/02/07 19:02:40;;;;;;;17.90;10.37;;;;;;;-0.09;51.34;101085.50;5155162;27;40034;-82
2023/02/07 19:05:08;;;;;;;15.23;10.10;;;;;;;-0.14;50.95;101088.06;5156456;27;41666;-82
2023/02/07 19:07:36;;;;;;;16.77;10.07;;;;;;;-0.11;50.92;101097.63;5156075;27;42808;-81
2023/02/07 19:10:04;;;;;;;16.20;11.90;;;;;;;-0.19;51.23;101088.81;5154810;27;42679;-82
2023/02/07 19:12:32;;;;;;;12.73;9.47;;;;;;;-0.21;51.63;101091.38;5137585;27;38732;-81
2023/02/07 19:15:00;;;;;;;14.87;10.30;;;;;;;-0.31;51.54;101086.88;5138005;27;40852;-81
2023/02/07 19:17:28;;;;;;;18.13;11.13;;;;;;;-0.17;51.68;101114.03;5154823;27;42778;-82
2023/02/07 19:19:57;;;;;;;14.93;10.90;;;;;;;-0.21;51.90;101116.53;5137698;27;42417;-82
2023/02/07 19:22:28;;;;;;;15.47;10.77;;;;;;;-0.24;51.52;101119.09;5137782;27;40009;-82
2023/02/07 19:24:56;;;;;;;14.47;10.60;;;;;;;-0.28;51.60;101120.78;5136893;27;41572;-82
2023/02/07 19:27:24;;;;;;;19.03;12.30;;;;;;;-0.31;52.32;101114.63;5137152;27;41338;-81
2023/02/07 19:29:52;;;;;;;18.43;11.20;;;;;;;-0.54;52.13;101089.09;5137691;27;42430;-82
2023/02/07 19:32:20;;;;;;;15.50;10.27;;;;;;;-0.46;52.47;101107.44;5137439;27;40150;-82
2023/02/07 19:34:48;;;;;;;14.90;9.50;;;;;;;-0.38;52.38;101122.34;5137619;27;42390;-82
2023/02/07 19:37:27;;;;;;;14.93;9.13;;;;;;;-0.81;52.14;101059.94;5138496;27;41958;-83
2023/02/07 19:39:55;;;;;;;19.23;9.17;;;;;;;-0.43;52.05;101131.78;5140027;27;41629;-82
2023/02/07 19:42:24;;;;;;;17.63;10.10;;;;;;;-0.57;52.03;101111.56;5155032;27;40418;-82
2023/02/07 19:44:52;;;;;;;16.07;10.17;;;;;;;-0.62;52.18;101102.81;5137563;27;40613;-82
2023/02/07 19:47:22;;;;;;;15.03;9.53;;;;;;;-0.52;52.06;101126.44;5137464;27;43722;-81
2023/02/07 19:49:51;;;;;;;13.43;8.73;;;;;;;-0.55;52.27;101121.16;5137161;27;41210;-83
2023/02/07 19:52:24;;;;;;;12.30;8.10;;;;;;;-0.57;53.19;101122.84;5154809;27;40000;-82
2023/02/07 19:54:52;;;;;;;15.23;9.40;;;;;;;-0.60;53.14;101117.59;5137349;27;43107;-83
2023/02/07 19:57:19;;;;;;;14.60;9.50;;;;;;;-0.82;53.06;101090.28;5154691;27;42691;-82
2023/02/07 19:59:48;;;;;;;17.77;11.07;;;;;;;-0.94;53.05;101063.16;5154560;27;43376;-84
2023/02/07 20:02:18;;;;;;;17.40;10.47;;;;;;;-0.67;53.20;101120.94;5137196;27;40683;-83
2023/02/07 20:04:46;;;;;;;14.37;10.23;;;;;;;-0.81;52.88;101109.38;5137029;27;43458;-83
2023/02/07 20:07:14;;;;;;;15.60;9.70;;;;;;;-0.85;52.93;101104.94;5150672;27;41631;-80
2023/02/07 20:09:47;;;;;;;15.97;10.13;;;;;;;-0.79;53.54;101116.38;5146077;27;43632;-81
2023/02/07 20:12:15;;;;;;;15.60;10.33;;;;;;;-1.03;53.21;101089.88;5151017;27;39987;-81
2023/02/07 20:14:43;;;;;;;13.77;9.50;;;;;;;-0.85;53.19;101118.84;5114414;27;43665;-81
2023/02/07 20:17:11;;;;;;;15.20;9.93;;;;;;;-0.81;53.17;101132.78;5108097;27;41959;-82
2023/02/07 20:19:39;;;;;;;13.80;9.33;;;;;;;-0.82;53.23;101128.44;5117322;27;43717;-82
2023/02/07 20:22:07;;;;;;;14.90;8.73;;;;;;;-1.18;53.19;101076.56;5113898;27;38711;-82
2023/02/07 20:24:35;;;;;;;12.67;8.33;;;;;;;-1.03;53.14;101109.81;5113852;27;40801;-81
2023/02/07 20:27:04;;;;;;;13.70;8.67;;;;;;;-1.13;53.35;101088.81;5130931;27;42609;-81
2023/02/07 20:29:32;;;;;;;13.37;9.23;;;;;;;-1.25;53.01;101072.97;5114483;27;41193;-80
2023/02/07 20:32:00;;;;;;;19.67;10.07;;;;;;;-0.95;53.31;101118.63;5113818;27;38911;-80
2023/02/07 20:34:28;;;;;;;14.77;9.50;;;;;;;-0.97;53.87;101121.19;5114486;27;40856;-80
2023/02/07 20:36:56;;;;;;;15.47;10.30;;;;;;;-1.04;53.81;101108.94;5122329;27;42932;-83
2023/02/07 20:39:25;;;;;;;21.23;12.37;;;;;;;-1.01;53.97;101113.31;5111033;27;41075;-85
2023/02/07 20:41:53;;;;;;;16.63;11.33;;;;;;;-1.09;54.05;101111.41;5128632;27;39440;-81
2023/02/07 20:44:25;;;;;;;16.77;10.30;;;;;;;-1.17;53.88;101101.72;5111158;27;42158;-82
2023/02/07 20:46:54;;;;;;;16.00;10.00;;;;;;;-1.24;53.76;101100.72;5182675;27;43461;-82
2023/02/07 20:49:25;;;;;;;16.63;11.17;;;;;;;-1.47;54.03;101061.22;5110701;27;42779;-82
2023/02/07 20:51:53;;;;;;;18.80;11.27;;;;;;;-1.40;54.17;101080.44;5114729;27;38514;-83
2023/02/07 20:54:24;;;;;;;19.83;11.80;;;;;;;-1.26;54.16;101098.94;5110624;27;43135;-82
2023/02/07 20:56:53;;;;;;;16.97;10.80;;;;;;;-1.33;54.41;101090.13;5111185;27;42276;-86
2023/02/07 20:59:26;;;;;;;16.43;11.27;;;;;;;-1.28;54.72;101098.91;5153362;27;42996;-81
2023/02/07 21:01:54;;;;;;;14.73;9.50;;;;;;;-1.36;54.66;101095.25;5137901;27;38841;-81
2023/02/07 21:04:23;;;;;;;17.43;9.70;;;;;;;-1.29;54.80;101112.75;5138291;27;40421;-81
2023/02/07 21:06:51;;;;;;;18.73;11.60;;;;;;;-1.29;55.84;101112.75;5138530;27;42018;-82
2023/02/07 21:09:19;;;;;;;19.80;11.60;;;;;;;-1.38;55.71;101096.06;5155404;27;41950;-82
2023/02/07 21:11:49;;;;;;;20.37;11.67;;;;;;;-1.40;56.02;101106.44;5155580;27;39904;-81